Аэропорт
Кишинев (LUKK)

 LUKK / KIV
vACC Молдова
Кишинев (LUUU)
Кишинев (LUUU)
 46.92770, 28.93100  / 399 ft

 LUKK 161100Z 29020KT 9999 SCT024 BKN042 02/M01 Q1002 R26/CLRD// TEMPO 28020G30KT

Название сценария Тип сценария Flight Simulator 9 Flight Simulator X Prepar3D v2 Prepar3D v3 Prepar3D v4 xPlane
LUKK Chisinau X платный(+демо)


2018 © VATRUS division